Terminal Aerodrome Forecast
Issued by NWS

Home | Current Version | Previous Version | Text Only | Print | Product List | Glossary On
Versions: 1 2 3 4 5 6 7 8 9 10 11
000
FTUS45 KABQ 021100
TAFAEG
TAF
KAEG 021120Z 0212/0312 31010G16KT P6SM SKC
      TEMPO 0216/0220 31014G24KT
     FM030900 31006KT P6SM SKC=

USA.gov is the U.S. government's official web portal to all federal, state and local government web resources and services.